Dati Storici

Data ora Umidita' aria (%) Temperatura aria (°C) Rad globale (W/m²) Gonioanemometro (°) Tacoanemometro (m/s) Pioggia (mm)
26-10-2012 19:30 94.7 % 11.934 3.41 136.076 1.125 1
26-10-2012 19:20 94.6 % 11.953 3.385 8.317 1.516 1
26-10-2012 19:10 94.3 % 11.947 3.308 1.129 1.557 1
26-10-2012 19:00 94.2 % 12.012 3.295 64.61 2.054 1
26-10-2012 18:50 94 % 12.071 3.196 16.065 2.094 1
26-10-2012 18:40 94 % 12.162 3.221 8.964 0.632 0
26-10-2012 18:30 93.8 % 12.17 3.388 45.617 2.418 0
26-10-2012 18:20 93.7 % 12.211 3.255 35.83 1.673 0
26-10-2012 18:10 93.6 % 12.272 3.614 0.483 1.945 0
26-10-2012 18:00 93.1 % 12.289 4.255 14.458 1.138 0
26-10-2012 17:50 92.6 % 12.331 6.278 55.834 1.64 2
26-10-2012 17:40 92.2 % 12.513 6.034 37.233 2.178 1
26-10-2012 17:30 91.9 % 12.618 4.883 16.793 1.274 0
26-10-2012 17:20 91.5 % 12.752 13.283 44.896 1.577 0
26-10-2012 17:10 91.3 % 12.838 10.626 33.374 1.976 0
26-10-2012 17:00 90.8 % 12.877 14.444 40.065 2.301 0
26-10-2012 16:50 90.3 % 12.92 26.35 14.942 1.33 0
26-10-2012 16:40 89.7 % 12.97 43.462 55.286 1.189 0
26-10-2012 16:30 89.3 % 13.046 43.245 21.36 1.101 0
26-10-2012 16:20 88.8 % 13.124 44.478 9.152 1.259 0

I dati sono presentati in modo automatico a scopo informativo. In seguito a verifica i dati possono subire modifiche o essere invalidati e non riportati negli archivi definitivi.